createdAt,value
2024-01-16T00:03:00.077Z,98037.75
2024-01-16T00:08:22.005Z,98023.94
2024-01-16T00:13:43.868Z,98037.88
2024-01-16T00:19:05.938Z,98019.88
2024-01-16T00:24:27.845Z,98026.03
2024-01-16T00:29:49.854Z,98026.66
2024-01-16T00:35:11.828Z,98025.22
2024-01-16T00:40:33.727Z,98034.97
2024-01-16T00:45:55.616Z,98022.84
2024-01-16T00:51:17.530Z,98016.19
2024-01-16T00:56:39.531Z,98024.78
2024-01-16T01:02:01.532Z,98018.91
2024-01-16T01:07:23.609Z,98002.63
2024-01-16T01:12:45.434Z,98025.69
2024-01-16T01:18:08.062Z,98020.47
2024-01-16T01:23:30.163Z,98028.06
2024-01-16T01:28:52.032Z,98041.81
2024-01-16T01:34:13.929Z,98043.41
2024-01-16T01:39:35.790Z,98046.66
2024-01-16T01:44:59.604Z,98048.44
2024-01-16T01:50:21.613Z,98058.63
2024-01-16T01:55:43.491Z,98055.44
2024-01-16T02:01:07.373Z,98066.69
2024-01-16T02:06:29.342Z,98067.69
2024-01-16T02:11:51.248Z,98063.50
2024-01-16T02:17:13.097Z,98075.69
2024-01-16T02:22:37.689Z,98084.41
2024-01-16T02:28:01.524Z,98077.69
2024-01-16T02:33:23.507Z,98071.69
2024-01-16T02:38:46.716Z,98070.03
2024-01-16T02:44:08.821Z,98075.13
2024-01-16T02:49:33.213Z,98075.50
2024-01-16T02:54:55.422Z,98075.44
2024-01-16T03:00:18.534Z,98079.53
2024-01-16T03:05:40.686Z,98090.13
2024-01-16T03:11:02.601Z,98087.47
2024-01-16T03:16:24.385Z,98087.41
2024-01-16T03:21:46.217Z,98080.88
2024-01-16T03:27:08.051Z,98083.22
2024-01-16T03:32:30.646Z,98079.22
2024-01-16T03:37:52.521Z,98084.44
2024-01-16T03:43:14.902Z,98088.06
2024-01-16T03:48:36.840Z,98093.28
2024-01-16T03:53:58.979Z,98082.94
2024-01-16T03:59:20.777Z,98078.06
2024-01-16T04:04:42.626Z,98078.03
2024-01-16T04:10:06.431Z,98074.59
2024-01-16T04:15:28.353Z,98077.41
2024-01-16T04:20:51.075Z,98083.31
2024-01-16T04:26:13.156Z,98078.19
2024-01-16T04:31:42.030Z,98065.38
2024-01-16T04:37:04.536Z,98068.25
2024-01-16T04:42:26.508Z,98069.94
2024-01-16T04:47:48.350Z,98073.38
2024-01-16T04:53:10.197Z,98070.69
2024-01-16T04:58:32.105Z,98068.25
2024-01-16T05:03:53.932Z,98073.34
2024-01-16T05:09:15.748Z,98085.25
2024-01-16T05:14:37.593Z,98080.75
2024-01-16T05:20:00.189Z,98078.38
2024-01-16T05:25:22.852Z,98060.53
2024-01-16T05:30:44.756Z,98056.16
2024-01-16T05:36:06.967Z,98054.56
2024-01-16T05:41:29.205Z,98056.34
2024-01-16T05:46:51.451Z,98049.66
2024-01-16T05:52:13.296Z,98042.13
2024-01-16T05:57:35.156Z,98048.06
2024-01-16T06:02:56.954Z,98038.81
2024-01-16T06:08:20.171Z,98044.88
2024-01-16T06:13:42.090Z,98043.09
2024-01-16T06:19:04.223Z,98044.69
2024-01-16T06:24:26.172Z,98048.13
2024-01-16T06:29:49.667Z,98034.44
2024-01-16T06:35:13.598Z,98036.22
2024-01-16T06:40:35.446Z,98036.94
2024-01-16T06:45:57.177Z,98056.50
2024-01-16T06:51:19.547Z,98053.09
2024-01-16T06:56:41.561Z,98048.00
2024-01-16T07:02:04.386Z,98055.66
2024-01-16T07:07:26.322Z,98050.50
2024-01-16T07:12:48.322Z,98053.06
2024-01-16T07:18:10.333Z,98048.06
2024-01-16T07:23:32.387Z,98052.13
2024-01-16T07:28:54.275Z,98045.38
2024-01-16T07:34:21.122Z,98050.41
2024-01-16T07:39:43.019Z,98052.97
2024-01-16T07:45:05.623Z,98049.50
2024-01-16T07:50:27.696Z,98045.13
2024-01-16T07:55:50.162Z,98036.06
2024-01-16T08:01:11.975Z,98039.47
2024-01-16T08:06:33.896Z,98041.94
2024-01-16T08:11:55.826Z,98034.69
2024-01-16T08:17:17.761Z,98034.69
2024-01-16T08:22:39.630Z,98040.41
2024-01-16T08:28:02.076Z,98034.91
2024-01-16T08:33:31.422Z,98040.59
2024-01-16T08:38:59.420Z,98044.63
2024-01-16T08:44:21.329Z,98047.00
2024-01-16T08:49:44.476Z,98058.19
2024-01-16T08:55:06.462Z,98065.03
2024-01-16T09:00:28.414Z,98076.84
2024-01-16T09:05:50.411Z,98073.09
2024-01-16T09:11:12.528Z,98069.72
2024-01-16T09:16:34.372Z,98071.94
2024-01-16T09:21:59.230Z,98054.09
2024-01-16T09:27:21.097Z,98060.69
2024-01-16T09:32:43.841Z,98065.47
2024-01-16T09:38:08.354Z,98076.78
2024-01-16T09:43:32.207Z,98062.81
2024-01-16T09:48:58.216Z,98066.69
2024-01-16T09:54:20.177Z,98058.38
2024-01-16T09:59:42.804Z,98054.59
2024-01-16T10:05:04.943Z,98044.69
2024-01-16T10:10:38.387Z,98052.16
2024-01-16T10:16:08.602Z,98038.88
2024-01-16T10:21:33.255Z,98031.72
2024-01-16T10:27:03.547Z,98005.41
2024-01-16T10:32:30.886Z,97996.66
2024-01-16T10:37:54.912Z,97991.69
2024-01-16T10:43:18.640Z,97991.34
2024-01-16T10:48:43.306Z,97997.50
2024-01-16T10:54:07.012Z,97986.34
2024-01-16T11:00:18.207Z,97988.84
2024-01-16T11:05:41.099Z,97968.03
2024-01-16T11:11:04.696Z,97960.75
2024-01-16T11:16:27.361Z,97961.38
2024-01-16T11:21:50.434Z,97945.94
2024-01-16T11:27:24.011Z,97936.69
2024-01-16T11:32:46.150Z,97927.69
2024-01-16T11:38:10.900Z,97919.38
2024-01-16T11:43:32.808Z,97919.28
2024-01-16T11:49:04.767Z,97897.44
2024-01-16T11:54:27.635Z,97902.13
2024-01-16T12:00:14.015Z,97879.00
2024-01-16T12:05:36.320Z,97870.06
2024-01-16T12:10:59.006Z,97857.44
2024-01-16T12:16:20.862Z,97865.69
2024-01-16T12:21:45.128Z,97854.06
2024-01-16T12:27:07.225Z,97856.09
2024-01-16T12:32:29.153Z,97830.69
2024-01-16T12:38:06.620Z,97835.16
2024-01-16T12:43:28.681Z,97832.66
2024-01-16T12:48:56.689Z,97836.59
2024-01-16T12:54:25.497Z,97829.47
2024-01-16T12:59:48.671Z,97824.19
2024-01-16T13:05:10.663Z,97821.59
2024-01-16T13:10:32.965Z,97817.88
2024-01-16T13:15:54.932Z,97807.88
2024-01-16T13:21:16.770Z,97796.22
2024-01-16T13:26:38.694Z,97789.88
2024-01-16T13:32:01.411Z,97774.88
2024-01-16T13:37:24.264Z,97778.34
2024-01-16T13:42:49.069Z,97755.41
2024-01-16T13:48:11.155Z,97771.56
2024-01-16T13:53:33.166Z,97779.00
2024-01-16T13:58:55.014Z,97777.78
2024-01-16T14:04:16.872Z,97772.38
2024-01-16T14:09:39.165Z,97772.84
2024-01-16T14:15:04.442Z,97763.19
2024-01-16T14:20:28.555Z,97763.09
2024-01-16T14:25:50.865Z,97746.81
2024-01-16T14:31:12.698Z,97751.19
2024-01-16T14:36:34.551Z,97738.53
2024-01-16T14:41:56.392Z,97738.22
2024-01-16T14:47:19.136Z,97735.69
2024-01-16T14:52:41.673Z,97733.19
2024-01-16T14:58:03.789Z,97733.69
2024-01-16T15:03:25.776Z,97712.34
2024-01-16T15:08:49.454Z,97715.94
2024-01-16T15:14:14.695Z,97722.91
2024-01-16T15:19:37.701Z,97719.59
2024-01-16T15:24:59.524Z,97718.50
2024-01-16T15:30:22.846Z,97725.56
2024-01-16T15:35:44.709Z,97728.97
2024-01-16T15:41:07.147Z,97726.38
2024-01-16T15:46:29.070Z,97725.84
2024-01-16T15:51:50.932Z,97729.94
2024-01-16T15:57:12.943Z,97730.44
2024-01-16T16:02:35.082Z,97728.44
2024-01-16T16:07:56.984Z,97747.72
2024-01-16T16:13:19.905Z,97759.28
2024-01-16T16:18:42.150Z,97772.03
2024-01-16T16:24:05.564Z,97786.63
2024-01-16T16:29:27.355Z,97788.69
2024-01-16T16:34:50.302Z,97789.16
2024-01-16T16:40:13.383Z,97795.50
2024-01-16T16:45:35.307Z,97806.31
2024-01-16T16:50:57.390Z,97798.72
2024-01-16T16:56:20.605Z,97807.38
2024-01-16T17:01:42.480Z,97810.78
2024-01-16T17:07:04.675Z,97805.06
2024-01-16T17:12:26.696Z,97797.03
2024-01-16T17:17:49.085Z,97796.41
2024-01-16T17:23:11.004Z,97792.94
2024-01-16T17:28:33.217Z,97781.84
2024-01-16T17:33:55.499Z,97775.53
2024-01-16T17:39:20.151Z,97773.84
2024-01-16T17:44:49.359Z,97766.88
2024-01-16T17:50:12.625Z,97761.84
2024-01-16T17:55:35.081Z,97763.88
2024-01-16T18:00:56.952Z,97755.75
2024-01-16T18:06:21.582Z,97764.00
2024-01-16T18:11:57.029Z,97760.47
2024-01-16T18:17:19.640Z,97758.91
2024-01-16T18:22:41.895Z,97759.00
2024-01-16T18:28:05.280Z,97745.38
2024-01-16T18:33:27.283Z,97746.38
2024-01-16T18:38:50.524Z,97741.25
2024-01-16T18:44:13.306Z,97735.78
2024-01-16T18:49:35.256Z,97731.78
2024-01-16T18:54:57.614Z,97716.50
2024-01-16T19:00:23.359Z,97707.53
2024-01-16T19:05:45.524Z,97694.84
2024-01-16T19:11:07.395Z,97683.03
2024-01-16T19:16:29.634Z,97676.34
2024-01-16T19:21:52.685Z,97675.53
2024-01-16T19:27:14.580Z,97665.38
2024-01-16T19:32:36.557Z,97653.41
2024-01-16T19:37:58.445Z,97643.81
2024-01-16T19:43:20.681Z,97633.22
2024-01-16T19:48:42.650Z,97638.25
2024-01-16T19:54:07.659Z,97642.47
2024-01-16T19:59:31.985Z,97634.72
2024-01-16T20:04:55.527Z,97628.06
2024-01-16T20:10:18.545Z,97620.53
2024-01-16T20:15:40.649Z,97612.13
2024-01-16T20:21:02.584Z,97607.25
2024-01-16T20:26:26.843Z,97610.00
2024-01-16T20:31:48.806Z,97607.38
2024-01-16T20:37:14.330Z,97600.59
2024-01-16T20:42:38.002Z,97584.47
2024-01-16T20:47:59.908Z,97588.72
2024-01-16T20:53:22.490Z,97588.88
2024-01-16T20:58:44.369Z,97582.06
2024-01-16T21:04:07.314Z,97576.56
2024-01-16T21:09:29.390Z,97569.25
2024-01-16T21:14:51.372Z,97562.28
2024-01-16T21:20:13.725Z,97548.66
2024-01-16T21:25:35.697Z,97543.63
2024-01-16T21:31:02.359Z,97536.06
2024-01-16T21:36:24.648Z,97542.13
2024-01-16T21:41:47.499Z,97535.41
2024-01-16T21:47:10.085Z,97528.66
2024-01-16T21:52:31.934Z,97516.75
2024-01-16T21:57:53.820Z,97512.69
2024-01-16T22:03:15.639Z,97504.19
2024-01-16T22:08:37.418Z,97493.97
2024-01-16T22:13:59.557Z,97490.41
2024-01-16T22:19:21.939Z,97474.25
2024-01-16T22:24:43.770Z,97465.88
2024-01-16T22:30:09.325Z,97465.78
2024-01-16T22:35:31.884Z,97457.81
2024-01-16T22:40:53.716Z,97447.78
2024-01-16T22:46:16.266Z,97431.47
2024-01-16T22:51:38.087Z,97433.25
2024-01-16T22:56:59.974Z,97420.38
2024-01-16T23:02:22.004Z,97410.91
2024-01-16T23:07:47.049Z,97414.41
2024-01-16T23:13:08.883Z,97414.31
2024-01-16T23:18:31.120Z,97401.50
2024-01-16T23:23:53.110Z,97392.03
2024-01-16T23:29:15.053Z,97396.22
2024-01-16T23:34:38.382Z,97393.66
2024-01-16T23:40:00.671Z,97369.13
2024-01-16T23:45:27.873Z,97358.78
2024-01-16T23:50:55.413Z,97341.75
2024-01-16T23:56:17.201Z,97325.41
